Time;durP1;ratioP1;P1;durP2;ratioP2;P2;SDS_P1;SDS_P2;PMS_P1;PMS_P2;Temp;Humidity;BMP_temperature;BMP_pressure;BME280_temperature;BME280_humidity;BME280_pressure;Samples;Min_cycle;Max_cycle;Signal;HPM_P1;HPM_P2
2021/11/09 00:01:10;;;;;;;18.40;12.10;;;;;;;11.03;60.32;101121.63;117391;1179;23435;-67
2021/11/09 00:03:45;;;;;;;14.90;11.70;;;;;;;11.05;60.15;101124.77;117561;1179;24198;-70
2021/11/09 00:08:53;;;;;;;14.50;11.40;;;;;;;11.01;60.10;101126.73;117418;1182;23547;-69
2021/11/09 00:11:24;;;;;;;16.30;11.30;;;;;;;11.03;60.09;101124.62;117365;1182;23807;-69
2021/11/09 00:13:53;;;;;;;16.50;12.40;;;;;;;10.97;60.19;101128.85;117373;1183;21904;-68
2021/11/09 00:16:21;;;;;;;18.40;12.10;;;;;;;10.95;60.29;101127.09;117294;1182;21858;-69
2021/11/09 00:19:02;;;;;;;16.30;12.20;;;;;;;10.94;60.23;101117.44;117304;1176;21865;-69
2021/11/09 00:21:31;;;;;;;17.70;12.90;;;;;;;10.93;60.25;101123.06;117350;1183;22812;-67
2021/11/09 00:24:00;;;;;;;14.90;12.10;;;;;;;10.94;60.34;101125.69;117329;1183;21857;-66
2021/11/09 00:26:29;;;;;;;17.30;12.10;;;;;;;10.93;60.26;101129.20;117465;1180;23604;-66
2021/11/09 00:28:58;;;;;;;17.60;12.30;;;;;;;10.90;60.50;101139.21;117454;1185;21878;-68
2021/11/09 00:31:27;;;;;;;16.50;12.30;;;;;;;10.86;60.27;101140.63;117418;1182;22014;-66
2021/11/09 00:33:55;;;;;;;16.90;12.10;;;;;;;10.84;60.28;101135.89;117360;1179;23468;-69
2021/11/09 00:36:23;;;;;;;17.00;12.10;;;;;;;10.83;60.20;101127.98;117353;1182;22915;-69
2021/11/09 00:38:52;;;;;;;18.70;11.80;;;;;;;10.87;60.36;101124.47;117458;1182;24238;-68
2021/11/09 00:41:21;;;;;;;16.40;12.90;;;;;;;10.84;60.41;101127.98;117386;1183;23464;-69
2021/11/09 00:43:49;;;;;;;18.50;12.40;;;;;;;10.84;60.35;101122.71;117483;1183;23465;-69
2021/11/09 00:46:17;;;;;;;18.80;14.40;;;;;;;10.85;60.31;101120.27;117500;1182;21895;-67
2021/11/09 00:48:46;;;;;;;22.60;14.60;;;;;;;10.85;60.33;101114.29;117397;1182;23812;-66
2021/11/09 00:51:14;;;;;;;22.60;15.70;;;;;;;10.86;60.22;101098.31;117381;1183;23277;-66
2021/11/09 00:53:42;;;;;;;21.90;15.60;;;;;;;10.92;60.11;101090.75;117435;1184;21890;-66
2021/11/09 00:56:12;;;;;;;22.00;15.10;;;;;;;10.95;60.10;101077.57;117457;1182;22644;-66
2021/11/09 00:58:40;;;;;;;25.10;16.50;;;;;;;10.94;60.24;101074.77;117397;1182;24194;-69
2021/11/09 01:01:09;;;;;;;27.00;17.90;;;;;;;10.93;60.07;101077.75;117411;1182;23541;-66
2021/11/09 01:03:37;;;;;;;21.30;16.40;;;;;;;10.91;60.31;101084.79;117434;1182;23544;-66
2021/11/09 01:06:05;;;;;;;21.50;15.80;;;;;;;10.92;60.17;101101.11;117406;1182;21851;-69
2021/11/09 01:08:35;;;;;;;22.80;15.80;;;;;;;10.94;60.29;101106.90;117392;1182;23531;-68
2021/11/09 01:11:03;;;;;;;22.10;15.00;;;;;;;10.94;60.11;101104.80;117370;1186;22065;-66
2021/11/09 01:13:32;;;;;;;21.10;15.10;;;;;;;10.96;60.05;101105.83;117398;1182;23543;-66
2021/11/09 01:16:00;;;;;;;20.50;14.20;;;;;;;10.97;60.01;101103.91;117415;1179;22912;-66
2021/11/09 01:18:35;;;;;;;18.50;13.30;;;;;;;10.97;60.05;101112.88;117331;1183;22203;-66
2021/11/09 01:21:05;;;;;;;24.00;14.50;;;;;;;10.96;60.12;101110.42;117385;1185;23529;-69
2021/11/09 01:23:35;;;;;;;18.90;13.80;;;;;;;10.98;60.08;101108.48;117358;1183;24165;-66
2021/11/09 01:26:04;;;;;;;18.90;11.80;;;;;;;10.99;59.93;101097.05;117395;1185;22835;-66
2021/11/09 01:28:32;;;;;;;18.80;13.10;;;;;;;11.01;60.06;101085.64;117337;1185;21901;-66
2021/11/09 01:31:06;;;;;;;17.00;12.50;;;;;;;11.02;60.24;101083.17;117345;1183;23429;-66
2021/11/09 01:33:35;;;;;;;19.80;12.70;;;;;;;11.02;60.04;101080.73;117331;1185;21865;-68
2021/11/09 01:36:04;;;;;;;16.80;12.50;;;;;;;11.02;60.16;101077.92;117419;1183;22808;-66
2021/11/09 01:38:33;;;;;;;18.10;12.30;;;;;;;11.04;60.29;101080.55;117357;1185;22978;-65
2021/11/09 01:41:03;;;;;;;17.80;13.40;;;;;;;11.06;60.23;101086.84;117451;1185;22889;-69
2021/11/09 01:43:32;;;;;;;15.30;11.90;;;;;;;11.10;60.25;101094.21;117413;1185;22880;-65
2021/11/09 01:46:00;;;;;;;19.00;13.20;;;;;;;11.11;60.24;101100.00;117418;1182;23459;-68
2021/11/09 01:48:29;;;;;;;15.60;12.00;;;;;;;11.10;60.22;101104.56;117362;1182;24296;-66
2021/11/09 01:50:59;;;;;;;18.20;11.50;;;;;;;11.10;60.35;101101.06;117285;1183;21895;-66
2021/11/09 01:53:27;;;;;;;17.00;13.00;;;;;;;11.09;60.34;101100.70;117414;1187;21871;-66
2021/11/09 01:56:02;;;;;;;17.00;12.60;;;;;;;11.08;60.23;101100.18;117284;1183;23701;-67
2021/11/09 01:58:32;;;;;;;18.80;13.30;;;;;;;11.07;60.22;101105.11;117340;1184;21845;-68
2021/11/09 02:01:03;;;;;;;19.90;13.20;;;;;;;11.06;60.18;101102.83;117440;1185;23435;-68
2021/11/09 02:03:32;;;;;;;17.20;12.00;;;;;;;11.04;60.39;101104.23;117415;1185;21850;-66
2021/11/09 02:06:00;;;;;;;18.50;13.80;;;;;;;11.03;60.34;101107.94;117417;1182;22912;-68
2021/11/09 02:08:35;;;;;;;16.10;12.70;;;;;;;11.07;60.38;101100.37;117392;1179;23465;-68
2021/11/09 02:11:04;;;;;;;18.90;13.70;;;;;;;11.10;60.24;101098.42;117333;1179;22625;-66
2021/11/09 02:13:33;;;;;;;18.90;13.60;;;;;;;11.11;60.21;101101.58;117456;1183;23442;-66
2021/11/09 02:16:01;;;;;;;18.80;13.70;;;;;;;11.08;60.09;101102.64;117400;1185;21858;-66
2021/11/09 02:18:30;;;;;;;18.60;14.00;;;;;;;11.05;60.17;101098.08;117424;1185;21843;-66
2021/11/09 02:21:08;;;;;;;17.60;14.80;;;;;;;11.02;60.15;101095.30;117452;1183;22452;-67
2021/11/09 02:23:41;;;;;;;20.00;15.10;;;;;;;10.99;60.21;101094.77;117385;1179;22619;-66
2021/11/09 02:26:19;;;;;;;21.00;15.60;;;;;;;10.97;60.16;101094.08;117378;1180;24844;-69
2021/11/09 02:28:48;;;;;;;20.70;15.30;;;;;;;10.96;60.23;101094.80;117441;1179;21995;-69
2021/11/09 02:31:17;;;;;;;24.90;17.00;;;;;;;10.95;60.28;101094.44;117414;1179;22637;-69
2021/11/09 02:33:45;;;;;;;22.10;16.00;;;;;;;10.91;60.21;101097.95;117421;1183;21881;-69
2021/11/09 02:36:15;;;;;;;21.00;16.80;;;;;;;10.89;60.13;101095.84;117409;1184;24274;-66
2021/11/09 02:38:45;;;;;;;20.80;16.30;;;;;;;10.88;60.27;101102.88;117400;1184;21855;-67
2021/11/09 02:41:14;;;;;;;;;;;;;;;10.87;60.15;101103.21;117537;1179;21829;-66
2021/11/09 02:43:42;;;;;;;21.10;16.70;;;;;;;10.86;60.36;101104.10;117470;1186;21954;-69
2021/11/09 02:51:47;;;;;;;25.40;18.60;;;;;;;10.86;60.26;101121.30;117342;1185;21857;-69
2021/11/09 03:04:44;;;;;;;26.10;20.00;;;;;;;10.81;60.31;101128.52;117378;1185;24163;-69
2021/11/09 03:10:17;;;;;;;27.90;20.20;;;;;;;10.80;60.31;101129.76;117306;1182;21855;-69
2021/11/09 03:12:42;;;;;;;28.90;20.80;;;;;;;10.80;60.39;101132.39;117342;1185;23683;-69
2021/11/09 03:15:12;;;;;;;28.40;20.70;;;;;;;10.78;60.20;101135.02;117378;1185;23485;-69
2021/11/09 03:17:46;;;;;;;30.80;21.40;;;;;;;10.76;60.28;101142.92;117374;1184;23469;-66
2021/11/09 03:40:11;;;;;;;32.70;22.60;;;;;;;10.72;60.35;101136.59;117480;1185;24165;-69
2021/11/09 03:45:32;;;;;;;32.10;22.50;;;;;;;10.69;60.34;101140.29;117347;1185;23439;-66
2021/11/09 03:48:06;;;;;;;30.10;21.20;;;;;;;10.70;60.41;101142.21;117415;1184;21857;-69
2021/11/09 03:50:36;;;;;;;30.40;21.20;;;;;;;10.69;60.34;101138.70;117413;1185;21870;-66
2021/11/09 03:53:13;;;;;;;29.70;21.70;;;;;;;10.67;60.32;101142.22;117438;1180;23544;-66
2021/11/09 03:58:28;;;;;;;29.30;21.20;;;;;;;10.65;60.22;101146.25;117433;1179;23464;-66
2021/11/09 04:01:08;;;;;;;29.30;21.40;;;;;;;10.63;60.13;101152.04;117523;1179;23478;-66
2021/11/09 04:08:55;;;;;;;28.50;22.20;;;;;;;10.50;60.33;101158.71;117260;1186;24137;-66
2021/11/09 04:12:32;;;;;;;29.60;21.40;;;;;;;10.53;60.26;101162.77;117368;1185;22833;-69
2021/11/09 04:14:31;;;;;;;28.10;19.90;;;;;;;10.51;60.20;101166.10;117364;1184;21857;-65
2021/11/09 04:19:57;;;;;;;30.30;18.70;;;;;;;10.53;60.38;101178.91;117377;1184;23519;-68
2021/11/09 04:25:15;;;;;;;28.30;19.50;;;;;;;10.54;60.17;101179.44;117324;1184;24202;-66
2021/11/09 04:27:57;;;;;;;32.50;19.30;;;;;;;10.55;60.26;101178.20;117423;1185;21858;-65
2021/11/09 05:03:06;;;;;;;24.00;15.90;;;;;;;10.75;60.35;101183.83;117004;1188;21855;-69
2021/11/09 05:08:29;;;;;;;27.40;16.40;;;;;;;10.64;60.18;101192.58;116929;1188;24157;-70
2021/11/09 05:10:59;;;;;;;24.10;14.60;;;;;;;10.66;60.20;101198.39;119006;1188;21786;-70
2021/11/09 05:13:28;;;;;;;24.90;15.20;;;;;;;10.65;60.17;101196.98;117006;1188;24244;-69
2021/11/09 05:15:57;;;;;;;21.70;15.50;;;;;;;10.66;60.12;101204.70;117343;1184;23468;-68
2021/11/09 05:18:26;;;;;;;23.10;15.70;;;;;;;10.69;59.93;101208.73;117413;1182;23474;-70
2021/11/09 05:20:54;;;;;;;24.80;16.40;;;;;;;10.66;59.91;101206.64;117502;1185;22254;-70
2021/11/09 05:23:22;;;;;;;22.50;14.30;;;;;;;10.65;59.89;101201.55;117316;1184;22400;-71
2021/11/09 05:25:51;;;;;;;23.80;14.50;;;;;;;10.64;59.81;101206.45;119282;1184;21928;-70
2021/11/09 05:28:20;;;;;;;22.00;15.30;;;;;;;10.64;59.88;101218.56;117435;1184;23487;-65
2021/11/09 05:30:50;;;;;;;21.80;14.50;;;;;;;10.64;59.94;101223.48;117451;1186;22438;-66
2021/11/09 05:33:20;;;;;;;21.30;13.60;;;;;;;10.61;59.81;101221.90;117414;1185;23539;-64
2021/11/09 05:35:50;;;;;;;20.10;14.40;;;;;;;10.57;59.86;101228.05;117374;1186;22310;-70
2021/11/09 05:38:24;;;;;;;19.50;13.80;;;;;;;10.55;59.81;101229.27;117339;1185;24150;-65
2021/11/09 05:40:56;;;;;;;20.00;13.70;;;;;;;10.56;60.08;101240.33;117419;1185;21852;-69
2021/11/09 05:43:25;;;;;;;21.00;14.70;;;;;;;10.60;60.02;101262.09;117408;1182;23461;-64
2021/11/09 05:45:53;;;;;;;18.90;12.50;;;;;;;10.62;59.90;101281.91;117346;1184;21899;-65
2021/11/09 05:48:22;;;;;;;17.70;12.80;;;;;;;10.61;59.97;101269.63;117421;1182;23464;-65
2021/11/09 05:50:51;;;;;;;16.90;12.30;;;;;;;10.58;59.89;101243.14;117428;1186;22957;-70
2021/11/09 05:53:19;;;;;;;18.90;13.30;;;;;;;10.58;59.85;101228.94;117425;1186;21848;-69
2021/11/09 05:55:47;;;;;;;18.20;12.10;;;;;;;10.60;60.00;101226.64;117500;1182;22914;-66
2021/11/09 05:58:15;;;;;;;19.50;13.30;;;;;;;10.63;59.97;101231.90;117294;1185;21857;-64
2021/11/09 06:00:43;;;;;;;17.60;12.70;;;;;;;10.65;60.00;101237.52;117326;1182;22645;-69
2021/11/09 06:03:11;;;;;;;17.70;11.70;;;;;;;10.67;59.94;101249.64;117250;1184;22915;-64
2021/11/09 06:05:40;;;;;;;20.80;12.90;;;;;;;10.69;59.82;101255.96;117377;1185;23544;-65
2021/11/09 06:08:09;;;;;;;17.80;13.10;;;;;;;10.70;59.78;101253.33;117345;1182;23465;-65
2021/11/09 06:10:38;;;;;;;16.30;11.50;;;;;;;10.71;59.90;101264.73;117317;1184;24152;-69
2021/11/09 06:13:26;;;;;;;16.30;12.30;;;;;;;10.68;59.62;101268.77;117354;1184;22979;-69
2021/11/09 06:15:54;;;;;;;19.30;12.40;;;;;;;10.65;59.76;101268.59;117550;1184;24152;-69
2021/11/09 06:18:23;;;;;;;16.00;11.50;;;;;;;10.63;59.84;101268.05;117342;1179;23456;-65
2021/11/09 06:20:51;;;;;;;15.40;12.20;;;;;;;10.64;60.02;101271.75;119451;1183;22132;-70
2021/11/09 06:23:19;;;;;;;16.30;11.60;;;;;;;10.67;59.80;101277.02;117461;1180;22938;-65
2021/11/09 06:25:49;;;;;;;16.10;11.70;;;;;;;10.67;59.85;101287.20;117417;1182;21845;-66
2021/11/09 06:28:19;;;;;;;17.90;12.80;;;;;;;10.69;59.90;101295.63;117401;1185;23570;-66
2021/11/09 06:30:49;;;;;;;15.40;12.40;;;;;;;10.68;59.98;101298.27;117414;1183;21905;-66
2021/11/09 06:33:18;;;;;;;16.90;13.00;;;;;;;10.68;59.82;101296.15;117415;1184;22940;-65
2021/11/09 06:35:46;;;;;;;16.00;11.10;;;;;;;10.69;60.02;101291.59;117339;1185;24140;-66
2021/11/09 06:38:14;;;;;;;14.30;11.40;;;;;;;10.74;59.92;101284.77;117390;1189;24166;-69
2021/11/09 06:40:42;;;;;;;19.80;12.10;;;;;;;10.79;59.91;101275.29;117379;1185;23442;-62
2021/11/09 06:43:11;;;;;;;15.20;11.40;;;;;;;10.88;59.97;101273.89;117295;1185;21898;-69
2021/11/09 06:45:40;;;;;;;19.70;12.50;;;;;;;10.94;59.90;101282.15;117369;1185;24162;-69
2021/11/09 06:48:08;;;;;;;15.40;11.30;;;;;;;10.96;59.82;101296.73;117346;1185;23628;-69
2021/11/09 06:50:37;;;;;;;17.90;12.60;;;;;;;11.00;59.88;101298.84;117427;1182;21908;-69
2021/11/09 06:53:05;;;;;;;15.70;11.60;;;;;;;11.00;59.92;101295.49;117422;1186;21855;-69
2021/11/09 06:55:37;;;;;;;15.60;11.80;;;;;;;11.01;59.80;101291.46;117448;1185;23525;-64
2021/11/09 06:58:05;;;;;;;16.70;11.70;;;;;;;11.02;59.92;101287.95;117383;1186;21861;-68
2021/11/09 07:00:33;;;;;;;19.50;12.30;;;;;;;11.03;59.92;101283.55;117317;1186;21852;-68
2021/11/09 07:03:01;;;;;;;13.40;10.60;;;;;;;11.06;59.81;101287.23;117404;1185;22727;-65
2021/11/09 07:05:30;;;;;;;19.30;12.10;;;;;;;11.08;59.84;101291.63;117408;1186;23465;-67
2021/11/09 07:07:58;;;;;;;16.80;11.70;;;;;;;11.12;59.95;101299.89;117438;1183;21936;-68
2021/11/09 07:10:26;;;;;;;17.70;11.80;;;;;;;11.16;60.10;101306.56;117411;1183;24142;-64
2021/11/09 07:12:55;;;;;;;19.60;12.90;;;;;;;11.20;60.04;101305.88;117433;1182;23442;-64
2021/11/09 07:15:24;;;;;;;17.10;11.80;;;;;;;11.23;60.07;101310.96;117397;1185;21864;-64
2021/11/09 07:18:12;;;;;;;17.20;12.90;;;;;;;11.27;60.04;101307.61;117305;1186;23461;-64
2021/11/09 07:20:40;;;;;;;21.40;12.00;;;;;;;11.32;60.12;101308.66;117355;1186;24712;-68
2021/11/09 07:23:08;;;;;;;17.00;11.40;;;;;;;11.34;60.13;101311.30;117448;1182;23478;-65
2021/11/09 07:25:37;;;;;;;17.90;12.40;;;;;;;11.35;59.92;101311.48;117448;1186;22947;-68
2021/11/09 07:28:05;;;;;;;20.80;13.10;;;;;;;11.37;60.08;101316.75;117349;1185;23452;-65
2021/11/09 07:30:43;;;;;;;17.00;12.30;;;;;;;11.43;60.00;101316.75;117288;1185;23551;-66
2021/11/09 07:33:12;;;;;;;25.70;17.00;;;;;;;11.50;60.04;101311.82;117465;1185;21917;-65
2021/11/09 07:35:42;;;;;;;24.50;16.80;;;;;;;11.55;60.08;101311.27;117380;1186;24181;-65
2021/11/09 07:38:10;;;;;;;21.50;15.40;;;;;;;11.60;60.11;101311.80;117387;1185;23447;-66
2021/11/09 07:40:39;;;;;;;23.30;13.70;;;;;;;11.65;60.22;101314.79;117377;1185;23445;-61
2021/11/09 07:43:11;;;;;;;16.20;11.90;;;;;;;11.67;60.31;101323.58;117370;1185;23478;-62
2021/11/09 07:45:41;;;;;;;17.00;11.70;;;;;;;11.73;60.37;101327.41;117387;1185;22914;-61
2021/11/09 07:48:11;;;;;;;16.10;11.50;;;;;;;11.82;60.40;101322.84;117313;1186;22090;-62
2021/11/09 07:50:40;;;;;;;;;;;;;;;11.89;60.24;101317.73;117387;1185;22922;-65
2021/11/09 07:53:13;;;;;;;13.10;9.70;;;;;;;11.99;60.24;101319.98;117414;1185;21864;-65
2021/11/09 07:56:03;;;;;;;15.80;10.30;;;;;;;12.00;60.21;101324.58;117272;1185;22919;-65
2021/11/09 07:58:52;;;;;;;15.10;9.50;;;;;;;12.06;60.11;101329.31;117364;1185;24155;-60
2021/11/09 08:01:38;;;;;;;16.50;9.50;;;;;;;12.08;60.09;101338.98;117318;1186;23466;-65
2021/11/09 08:06:53;;;;;;;17.60;9.50;;;;;;;12.04;60.21;101346.91;117307;1186;23441;-61
2021/11/09 08:09:30;;;;;;;14.10;9.70;;;;;;;12.02;60.07;101349.37;117362;1185;23472;-61
2021/11/09 08:12:02;;;;;;;14.10;9.70;;;;;;;12.05;60.00;101357.11;117437;1185;21929;-66
2021/11/09 08:14:30;;;;;;;17.90;10.60;;;;;;;12.06;60.08;101356.77;117402;1183;23464;-64
2021/11/09 08:17:03;;;;;;;17.60;10.60;;;;;;;12.06;59.90;101353.59;117330;1186;23464;-65
2021/11/09 08:19:33;;;;;;;21.30;13.20;;;;;;;12.06;59.96;101349.36;117333;1183;21855;-64
2021/11/09 08:22:02;;;;;;;15.10;12.10;;;;;;;12.07;60.09;101348.66;117389;1186;22845;-65
2021/11/09 08:24:30;;;;;;;17.80;10.50;;;;;;;12.09;60.27;101347.60;117383;1185;23267;-65
2021/11/09 08:27:04;;;;;;;14.20;10.20;;;;;;;12.10;60.26;101360.98;117308;1185;21952;-65
2021/11/09 08:29:33;;;;;;;18.40;10.60;;;;;;;12.11;60.13;101365.90;117362;1188;21848;-65
2021/11/09 08:32:16;;;;;;;28.30;12.60;;;;;;;12.11;60.16;101367.66;117415;1183;23468;-62
2021/11/09 08:34:45;;;;;;;17.20;9.60;;;;;;;12.10;60.17;101369.60;117395;1185;23547;-62
2021/11/09 08:37:13;;;;;;;16.80;9.90;;;;;;;12.13;60.19;101366.05;117402;1182;23469;-65
2021/11/09 08:39:43;;;;;;;14.00;9.40;;;;;;;12.15;60.34;101364.45;117405;1185;22883;-65
2021/11/09 08:45:15;;;;;;;16.60;10.70;;;;;;;12.36;60.42;101367.92;117349;1185;23442;-65
2021/11/09 08:47:49;;;;;;;16.90;11.70;;;;;;;12.39;60.28;101375.65;117390;1185;23631;-64
2021/11/09 08:50:18;;;;;;;15.30;9.80;;;;;;;12.38;60.22;101380.05;117420;1183;21905;-64
2021/11/09 08:52:49;;;;;;;16.20;9.10;;;;;;;12.37;60.24;101384.98;117360;1182;22112;-62
2021/11/09 08:55:29;;;;;;;15.30;8.70;;;;;;;12.36;60.24;101382.88;117375;1185;22237;-61
2021/11/09 09:06:10;;;;;;;13.60;8.60;;;;;;;12.43;60.29;101388.83;117359;1185;24196;-61
2021/11/09 09:08:38;;;;;;;18.50;11.40;;;;;;;12.44;60.06;101384.77;117349;1186;23557;-61
2021/11/09 09:11:09;;;;;;;;;;;;;;;12.44;60.42;101371.58;117467;1186;22913;-63
2021/11/09 09:13:37;;;;;;;16.60;9.90;;;;;;;12.51;60.41;101373.85;117483;1183;21854;-60
2021/11/09 09:16:06;;;;;;;18.10;10.00;;;;;;;12.58;60.47;101379.98;117425;1185;21860;-60
2021/11/09 09:18:34;;;;;;;14.00;9.40;;;;;;;12.67;60.45;101380.28;117426;1182;21856;-64
2021/11/09 09:21:11;;;;;;;17.70;9.60;;;;;;;12.73;60.32;101380.59;117397;1186;21863;-61
2021/11/09 09:23:53;;;;;;;14.20;9.00;;;;;;;12.81;60.50;101382.51;117390;1182;23438;-61
2021/11/09 09:54:28;;;;;;;16.00;10.00;;;;;;;13.12;60.07;101380.55;117337;1182;23441;-60
2021/11/09 09:56:57;;;;;;;15.30;9.80;;;;;;;13.13;59.96;101384.59;117327;1183;22652;-62
2021/11/09 09:59:31;;;;;;;17.40;9.60;;;;;;;13.14;59.98;101380.36;117341;1185;21877;-59
2021/11/09 10:02:08;;;;;;;12.80;8.80;;;;;;;13.12;59.84;101373.32;117362;1185;23449;-62
2021/11/09 10:04:42;;;;;;;15.50;9.20;;;;;;;13.07;59.95;101376.34;117379;1185;23439;-63
2021/11/09 10:07:13;;;;;;;17.40;9.50;;;;;;;13.05;59.90;101383.92;117396;1186;21844;-59
2021/11/09 10:09:45;;;;;;;17.60;10.10;;;;;;;13.05;59.91;101387.81;117370;1185;21864;-62
2021/11/09 10:12:17;;;;;;;15.40;8.70;;;;;;;12.99;60.09;101381.16;117391;1188;21868;-59
2021/11/09 10:14:47;;;;;;;14.90;9.50;;;;;;;12.99;59.92;101382.39;117357;1185;24181;-59
2021/11/09 10:17:27;;;;;;;24.30;11.10;;;;;;;13.00;59.99;101381.70;117369;1184;22680;-59
2021/11/09 10:19:56;;;;;;;17.10;10.50;;;;;;;13.00;59.90;101375.34;117426;1184;22844;-62
2021/11/09 10:22:28;;;;;;;20.00;12.10;;;;;;;13.04;59.78;101374.96;117342;1185;21951;-61
2021/11/09 10:25:00;;;;;;;16.10;11.50;;;;;;;13.00;59.93;101382.56;117382;1185;22647;-61
2021/11/09 10:27:30;;;;;;;14.00;9.10;;;;;;;12.95;59.83;101388.58;117285;1185;22130;-59
2021/11/09 10:29:59;;;;;;;17.10;11.90;;;;;;;12.87;59.98;101380.70;117401;1185;21867;-62
2021/11/09 10:32:28;;;;;;;22.90;12.40;;;;;;;12.85;60.06;101376.13;117380;1185;21953;-62
2021/11/09 10:34:58;;;;;;;18.20;13.30;;;;;;;12.87;60.02;101373.48;117389;1182;23547;-62
2021/11/09 10:37:28;;;;;;;15.10;11.20;;;;;;;12.89;60.12;101365.73;117397;1186;21874;-62
2021/11/09 10:40:29;;;;;;;18.90;13.80;;;;;;;12.89;60.13;101366.25;117408;1186;22435;-59
2021/11/09 10:43:00;;;;;;;18.90;12.70;;;;;;;12.90;59.92;101369.06;117383;1185;21871;-61
2021/11/09 10:45:29;;;;;;;;;;;;;;;12.90;60.05;101369.41;117343;1185;21896;-60
2021/11/09 10:48:03;;;;;;;12.70;9.60;;;;;;;12.91;59.90;101379.27;117481;1184;22915;-60
2021/11/09 10:50:37;;;;;;;11.70;8.60;;;;;;;12.87;59.86;101381.05;117472;1184;23499;-59
2021/11/09 10:53:58;;;;;;;14.60;11.10;;;;;;;12.85;59.91;101384.59;117436;1186;21845;-59
2021/11/09 10:56:07;;;;;;;17.70;11.40;;;;;;;12.84;59.80;101384.23;117307;1185;23442;-61
2021/11/09 11:06:16;;;;;;;14.30;9.50;;;;;;;12.70;59.93;101395.06;117430;1183;24177;-59
2021/11/09 11:08:54;;;;;;;14.10;9.00;;;;;;;12.68;60.07;101389.09;117418;1183;21845;-61
2021/11/09 11:11:27;;;;;;;15.70;9.90;;;;;;;12.71;59.92;101390.48;117398;1183;23699;-59
2021/11/09 11:14:08;;;;;;;15.30;9.90;;;;;;;12.76;59.90;101394.50;117393;1185;21930;-59
2021/11/09 11:16:48;;;;;;;13.90;9.50;;;;;;;12.81;60.07;101393.77;117398;1186;23637;-59
2021/11/09 11:19:19;;;;;;;13.90;9.50;;;;;;;12.84;59.80;101392.34;117582;1182;23602;-58
2021/11/09 11:21:47;;;;;;;11.30;8.60;;;;;;;12.83;59.72;101394.10;117549;1185;21867;-60
2021/11/09 11:24:16;;;;;;;16.30;8.50;;;;;;;12.85;59.77;101395.85;117542;1182;23439;-61
2021/11/09 11:26:45;;;;;;;40.20;13.60;;;;;;;12.84;59.76;101389.34;117532;1186;21858;-60
2021/11/09 11:29:21;;;;;;;48.50;13.70;;;;;;;12.81;59.76;101390.59;117524;1184;23550;-61
2021/11/09 11:31:50;;;;;;;49.60;15.60;;;;;;;12.84;59.66;101397.63;117534;1183;22985;-59
2021/11/09 11:34:19;;;;;;;21.90;9.60;;;;;;;12.83;59.50;101397.29;117546;1183;24163;-58
2021/11/09 11:36:49;;;;;;;19.30;9.30;;;;;;;12.83;59.32;101399.39;117602;1185;22333;-60
2021/11/09 11:39:20;;;;;;;28.60;11.70;;;;;;;12.80;59.42;101402.94;117402;1185;21858;-59
2021/11/09 11:41:52;;;;;;;31.10;12.40;;;;;;;12.76;59.30;101403.49;117371;1185;22916;-58
2021/11/09 11:44:25;;;;;;;16.10;8.90;;;;;;;12.74;59.46;101405.60;117417;1186;21843;-60
2021/11/09 11:47:21;;;;;;;24.70;9.60;;;;;;;12.73;59.28;101408.44;117424;1187;22905;-61
2021/11/09 11:49:51;;;;;;;42.00;11.80;;;;;;;12.71;59.35;101415.48;117350;1185;23681;-59
2021/11/09 11:52:27;;;;;;;40.80;12.10;;;;;;;12.67;59.51;101426.77;117358;1185;23496;-59
2021/11/09 11:54:56;;;;;;;12.90;7.50;;;;;;;12.66;59.49;101434.88;117372;1186;21889;-59
2021/11/09 11:57:42;;;;;;;13.50;8.00;;;;;;;12.64;59.47;101434.88;117518;1186;22635;-59
2021/11/09 12:00:27;;;;;;;13.50;8.00;;;;;;;12.62;59.42;101439.11;117385;1185;21839;-58
2021/11/09 12:02:56;;;;;;;14.80;9.70;;;;;;;12.63;59.43;101439.11;117422;1185;21845;-62
2021/11/09 12:05:41;;;;;;;16.30;10.50;;;;;;;12.62;59.41;101437.70;117469;1183;21912;-59
2021/11/09 12:08:15;;;;;;;17.50;10.00;;;;;;;12.57;59.33;101437.38;117413;1188;21862;-61
2021/11/09 12:10:43;;;;;;;18.40;10.90;;;;;;;12.54;59.43;101437.38;117404;1186;21857;-62
2021/11/09 12:13:12;;;;;;;16.70;10.80;;;;;;;12.49;59.33;101443.91;117395;1185;22903;-60
2021/11/09 12:15:54;;;;;;;17.80;11.20;;;;;;;12.47;59.42;101443.73;117424;1176;23452;-62
2021/11/09 12:18:39;;;;;;;19.50;11.20;;;;;;;12.45;59.30;101441.98;117376;1185;24680;-59
2021/11/09 12:21:19;;;;;;;20.70;11.80;;;;;;;12.41;59.24;101447.62;117534;1186;23439;-59
2021/11/09 12:24:07;;;;;;;16.30;11.00;;;;;;;12.38;59.40;101445.53;117498;1186;23464;-61
2021/11/09 12:26:39;;;;;;;16.50;10.10;;;;;;;12.38;59.31;101451.33;117496;1186;21956;-62
2021/11/09 12:29:35;;;;;;;16.00;10.10;;;;;;;12.30;59.42;101454.36;117495;1185;21857;-61
2021/11/09 12:32:32;;;;;;;17.80;9.50;;;;;;;12.19;59.57;101450.67;117486;1184;24375;-61
2021/11/09 12:35:11;;;;;;;19.90;10.40;;;;;;;12.21;59.53;101454.02;117516;1182;23312;-60
2021/11/09 12:38:07;;;;;;;16.40;9.10;;;;;;;12.22;59.44;101459.29;117435;1184;21858;-62
2021/11/09 12:40:43;;;;;;;14.30;8.80;;;;;;;12.22;59.63;101469.31;117442;1185;23478;-60
2021/11/09 12:43:19;;;;;;;15.50;8.80;;;;;;;12.22;59.40;101477.77;117326;1186;23439;-60
2021/11/09 12:45:52;;;;;;;11.60;7.60;;;;;;;12.24;59.58;101481.98;117445;1182;23478;-59
2021/11/09 12:48:29;;;;;;;12.50;8.10;;;;;;;12.24;59.43;101486.73;117537;1186;21863;-61
2021/11/09 12:50:59;;;;;;;15.20;7.80;;;;;;;12.23;59.52;101496.42;117509;1182;22902;-62
2021/11/09 12:53:27;;;;;;;15.50;7.10;;;;;;;12.24;59.67;101493.24;117497;1182;22932;-61
2021/11/09 12:56:01;;;;;;;15.30;9.60;;;;;;;12.25;59.47;101488.32;117580;1185;23547;-59
2021/11/09 12:58:33;;;;;;;13.60;8.20;;;;;;;12.22;59.49;101491.15;117398;1184;22899;-59
2021/11/09 13:01:06;;;;;;;13.40;7.40;;;;;;;12.23;59.19;101497.83;117410;1186;21976;-59
2021/11/09 13:03:42;;;;;;;18.50;9.00;;;;;;;12.20;59.31;101502.05;117416;1183;23563;-62
2021/11/09 13:06:20;;;;;;;13.30;8.30;;;;;;;12.17;59.31;101501.35;117443;1185;21836;-59
2021/11/09 13:09:07;;;;;;;13.90;8.70;;;;;;;12.17;59.46;101505.04;117408;1186;23466;-62
2021/11/09 13:11:39;;;;;;;15.10;8.50;;;;;;;12.23;59.40;101514.19;117428;1180;22954;-62
2021/11/09 13:14:08;;;;;;;13.20;8.70;;;;;;;12.26;59.33;101524.40;117367;1185;23813;-60
2021/11/09 13:17:18;;;;;;;11.60;7.30;;;;;;;12.25;59.21;101539.17;117377;1186;21863;-62
2021/11/09 13:19:58;;;;;;;11.60;7.70;;;;;;;12.25;59.33;101541.46;117391;1182;22932;-62
2021/11/09 13:22:29;;;;;;;11.90;7.60;;;;;;;12.24;59.28;101541.11;117370;1186;21858;-62
2021/11/09 13:25:05;;;;;;;16.20;7.60;;;;;;;12.23;59.25;101550.09;117445;1185;23557;-60
2021/11/09 13:27:43;;;;;;;13.50;7.50;;;;;;;12.22;59.39;101552.91;117512;1179;23554;-59
2021/11/09 13:30:13;;;;;;;13.10;7.50;;;;;;;12.24;59.34;101558.19;117503;1186;21846;-59
2021/11/09 13:32:44;;;;;;;10.50;7.20;;;;;;;12.26;59.27;101560.30;117505;1185;23464;-59
2021/11/09 13:35:32;;;;;;;13.90;8.10;;;;;;;12.28;59.27;101552.73;117414;1186;22006;-59
2021/11/09 13:38:13;;;;;;;10.00;6.60;;;;;;;12.29;59.28;101556.79;117429;1185;22760;-59
2021/11/09 13:40:45;;;;;;;15.30;8.60;;;;;;;12.30;59.19;101556.60;117400;1182;21865;-62
2021/11/09 13:43:15;;;;;;;14.30;8.50;;;;;;;12.29;59.17;101556.95;117351;1185;23478;-61
2021/11/09 13:45:45;;;;;;;13.90;9.00;;;;;;;12.27;59.25;101562.94;117337;1185;21858;-60
2021/11/09 13:48:16;;;;;;;16.40;9.40;;;;;;;12.24;59.24;101565.05;117414;1185;22964;-61
2021/11/09 13:50:46;;;;;;;16.40;9.20;;;;;;;12.23;59.20;101571.91;117392;1186;21869;-60